Jackson Hole Airport Jackson US
ICAO: KJAC
IATA: JAC
Category: Medium
Scheduled Services: Yes

Elevation: 6451 ft
TransAlt. 18000 ft.

Airport Communications:
ATIS:120.625
AWOS 3:135.175
SALT LAKE CNTR:133.25
CTAF:118.075
GND:124.55
CASPER RDO:122.05
TWR:118.075
UNICOM:122.95

KJAC Zoom In..

If Map Doesn't Load, Click Here

Runways:

(A) RW 01 length 6300 ft width 150 ft
---- / hdg 7

(B) RW 19 length 6300 ft width 150 ft
ILS 109.10 / hdg 187

Location; KJAC
Day. 23 / Time. 20.56 Zulu
* Altimeter: 30.02
* Temperature: 18° c. 64.4°f.
* Wind from: 270° Speed 09 kn.
Dewpoint: -05° c.
Visibility: 10 Statute Miles.
Clouds: Clear (automated report).

KJAC 232056Z 27009KT 10SM CLR 18/M05 A3002 RMK AO2 SLP134 T01831050 56006


Wind From 270°
Speed 09 kn.

 
 
jpsmedia.com for Web Design worldairports.se 2018   terms of use